createdAt,value
2022-09-17T00:01:24.937Z,84.85
2022-09-17T00:03:56.254Z,84.70
2022-09-17T00:06:25.168Z,84.99
2022-09-17T00:08:54.198Z,84.66
2022-09-17T00:11:24.762Z,84.62
2022-09-17T00:13:54.084Z,84.09
2022-09-17T00:16:27.927Z,84.40
2022-09-17T00:18:58.041Z,84.25
2022-09-17T00:21:26.587Z,84.62
2022-09-17T00:23:56.311Z,84.54
2022-09-17T00:26:24.729Z,85.03
2022-09-17T00:28:53.687Z,85.32
2022-09-17T00:31:22.136Z,85.87
2022-09-17T00:33:50.624Z,85.28
2022-09-17T00:36:20.684Z,85.45
2022-09-17T00:38:50.771Z,84.86
2022-09-17T00:41:19.048Z,84.46
2022-09-17T00:43:49.451Z,85.25
2022-09-17T00:46:25.192Z,85.02
2022-09-17T00:48:54.219Z,85.26
2022-09-17T00:51:28.025Z,85.01
2022-09-17T00:53:56.845Z,85.22
2022-09-17T00:56:26.930Z,85.52
2022-09-17T00:58:55.919Z,85.37
2022-09-17T01:01:24.150Z,85.37
2022-09-17T01:03:52.211Z,85.63
2022-09-17T01:06:26.712Z,84.65
2022-09-17T01:09:05.959Z,84.40
2022-09-17T01:11:55.995Z,83.59
2022-09-17T01:14:36.419Z,83.62
2022-09-17T01:17:19.466Z,82.40
2022-09-17T01:20:13.923Z,82.58
2022-09-17T01:22:55.868Z,82.39
2022-09-17T01:25:25.072Z,82.55
2022-09-17T01:28:15.704Z,82.57
2022-09-17T01:31:02.118Z,82.46
2022-09-17T01:38:05.503Z,82.76
2022-09-17T01:40:41.447Z,82.68
2022-09-17T01:43:12.253Z,82.80
2022-09-17T01:45:43.253Z,82.25
2022-09-17T01:48:17.560Z,82.52
2022-09-17T01:50:50.870Z,83.29
2022-09-17T01:53:20.177Z,83.12
2022-09-17T01:55:50.247Z,83.44
2022-09-17T01:58:20.508Z,83.00
2022-09-17T02:00:52.565Z,82.80
2022-09-17T02:03:24.372Z,83.22
2022-09-17T02:05:56.608Z,82.86
2022-09-17T02:08:27.370Z,83.19
2022-09-17T02:10:59.648Z,83.03
2022-09-17T02:13:31.088Z,82.27
2022-09-17T02:16:09.750Z,82.34
2022-09-17T02:18:41.716Z,81.75
2022-09-17T02:21:14.720Z,81.71
2022-09-17T02:23:48.361Z,81.76
2022-09-17T02:26:18.824Z,83.13
2022-09-17T02:28:50.972Z,82.87
2022-09-17T02:31:19.226Z,83.19
2022-09-17T02:33:50.748Z,83.83
2022-09-17T02:36:19.385Z,83.04
2022-09-17T02:38:47.872Z,83.62
2022-09-17T02:41:17.952Z,83.72
2022-09-17T02:43:52.683Z,83.97
2022-09-17T02:46:38.195Z,83.88
2022-09-17T02:49:23.766Z,83.35
2022-09-17T02:51:59.360Z,83.16
2022-09-17T02:54:30.045Z,83.12
2022-09-17T02:57:06.382Z,82.85
2022-09-17T02:59:41.896Z,83.08
2022-09-17T03:02:14.545Z,82.34
2022-09-17T03:04:46.855Z,81.98
2022-09-17T03:07:15.246Z,82.80
2022-09-17T03:09:43.612Z,82.50
2022-09-17T03:12:12.395Z,82.98
2022-09-17T03:14:40.429Z,83.05
2022-09-17T03:17:08.618Z,82.90
2022-09-17T03:19:36.673Z,82.97
2022-09-17T03:22:06.102Z,83.48
2022-09-17T03:24:34.080Z,82.97
2022-09-17T03:27:02.198Z,82.73
2022-09-17T03:29:30.195Z,82.87
2022-09-17T03:31:58.210Z,83.61
2022-09-17T03:34:26.126Z,82.82
2022-09-17T03:36:54.191Z,83.34
2022-09-17T03:39:23.521Z,83.02
2022-09-17T03:41:51.507Z,83.16
2022-09-17T03:44:19.599Z,83.92
2022-09-17T03:46:47.672Z,83.99
2022-09-17T03:49:15.694Z,83.40
2022-09-17T03:51:44.152Z,84.34
2022-09-17T03:54:12.245Z,83.68
2022-09-17T03:56:41.544Z,83.92
2022-09-17T03:59:09.717Z,83.80
2022-09-17T04:01:37.812Z,83.99
2022-09-17T04:04:07.878Z,83.70
2022-09-17T04:06:35.990Z,83.32
2022-09-17T04:09:05.514Z,83.77
2022-09-17T04:11:33.492Z,83.87
2022-09-17T04:14:02.975Z,83.04
2022-09-17T04:16:31.050Z,83.40
2022-09-17T04:18:59.158Z,82.05
2022-09-17T04:21:27.238Z,83.69
2022-09-17T04:23:55.452Z,82.83
2022-09-17T04:26:23.549Z,83.83
2022-09-17T04:28:51.519Z,82.72
2022-09-17T04:31:22.691Z,83.41
2022-09-17T04:33:50.726Z,83.23
2022-09-17T04:36:19.028Z,84.46
2022-09-17T04:38:49.355Z,84.00
2022-09-17T04:41:17.389Z,83.75
2022-09-17T04:43:45.419Z,82.98
2022-09-17T04:46:14.196Z,83.55
2022-09-17T04:48:43.647Z,83.18
2022-09-17T04:51:11.626Z,84.32
2022-09-17T04:53:39.610Z,84.68
2022-09-17T04:56:07.565Z,84.22
2022-09-17T04:58:35.540Z,84.76
2022-09-17T05:01:03.603Z,84.07
2022-09-17T05:03:31.685Z,84.08
2022-09-17T05:06:01.068Z,84.59
2022-09-17T05:08:29.053Z,83.82
2022-09-17T05:10:57.590Z,84.05
2022-09-17T05:13:25.588Z,83.92
2022-09-17T05:15:56.073Z,83.02
2022-09-17T05:18:24.306Z,82.99
2022-09-17T05:20:52.353Z,84.03
2022-09-17T05:23:21.827Z,83.52
2022-09-17T05:25:49.838Z,82.78
2022-09-17T05:28:17.872Z,83.63
2022-09-17T05:30:45.920Z,83.07
2022-09-17T05:33:13.890Z,83.04
2022-09-17T05:35:44.134Z,83.28
2022-09-17T05:38:12.364Z,83.26
2022-09-17T05:40:41.809Z,83.08
2022-09-17T05:43:11.159Z,83.06
2022-09-17T05:45:39.902Z,82.73
2022-09-17T05:48:10.390Z,83.65
2022-09-17T05:50:38.408Z,84.34
2022-09-17T05:53:07.505Z,83.95
2022-09-17T05:55:36.168Z,84.00
2022-09-17T05:58:12.363Z,83.71
2022-09-17T06:00:41.126Z,84.25
2022-09-17T06:03:09.646Z,84.59
2022-09-17T06:05:37.711Z,84.88
2022-09-17T06:08:05.745Z,85.68
2022-09-17T06:10:33.924Z,85.56
2022-09-17T06:13:01.941Z,86.66
2022-09-17T06:15:31.426Z,86.49
2022-09-17T06:17:59.548Z,85.86
2022-09-17T06:20:27.604Z,85.79
2022-09-17T06:22:58.098Z,85.22
2022-09-17T06:25:26.675Z,85.61
2022-09-17T06:27:54.639Z,85.61
2022-09-17T06:30:22.585Z,84.91
2022-09-17T06:32:51.928Z,84.80
2022-09-17T06:35:20.414Z,85.28
2022-09-17T06:37:48.989Z,85.83
2022-09-17T06:40:17.686Z,85.79
2022-09-17T06:42:45.715Z,86.34
2022-09-17T06:45:16.735Z,86.48
2022-09-17T06:47:46.441Z,86.12
2022-09-17T06:50:16.007Z,84.67
2022-09-17T06:52:49.473Z,86.25
2022-09-17T06:55:17.729Z,85.50
2022-09-17T06:57:45.970Z,85.48
2022-09-17T07:00:15.057Z,85.46
2022-09-17T07:02:43.137Z,83.98
2022-09-17T07:05:11.352Z,84.34
2022-09-17T07:07:41.188Z,83.77
2022-09-17T07:10:09.715Z,84.25
2022-09-17T07:12:42.925Z,82.98
2022-09-17T07:15:13.902Z,82.04
2022-09-17T07:17:42.670Z,82.09
2022-09-17T07:20:11.699Z,82.24
2022-09-17T07:22:41.251Z,82.98
2022-09-17T07:25:10.423Z,81.52
2022-09-17T07:27:38.497Z,81.70
2022-09-17T07:30:07.756Z,81.38
2022-09-17T07:32:35.763Z,82.18
2022-09-17T07:35:04.301Z,80.22
2022-09-17T07:37:32.311Z,80.10
2022-09-17T07:40:01.884Z,79.72
2022-09-17T07:42:30.056Z,81.39
2022-09-17T07:45:01.830Z,81.16
2022-09-17T07:47:30.936Z,80.89
2022-09-17T07:49:58.973Z,80.65
2022-09-17T07:52:27.538Z,81.22
2022-09-17T07:54:55.518Z,79.97
2022-09-17T07:57:24.993Z,80.39
2022-09-17T07:59:53.025Z,80.16
2022-09-17T08:02:24.202Z,80.28
2022-09-17T08:04:52.565Z,79.94
2022-09-17T08:07:20.541Z,78.88
2022-09-17T08:09:48.524Z,78.43
2022-09-17T08:12:18.344Z,77.73
2022-09-17T08:14:47.699Z,77.54
2022-09-17T08:17:15.783Z,76.00
2022-09-17T08:19:43.991Z,75.50
2022-09-17T08:22:11.983Z,76.11
2022-09-17T08:24:39.993Z,77.19
2022-09-17T08:27:08.013Z,77.70
2022-09-17T08:29:35.984Z,76.17
2022-09-17T08:32:05.612Z,75.88
2022-09-17T08:34:33.735Z,75.52
2022-09-17T08:37:02.949Z,77.03
2022-09-17T08:39:30.971Z,77.73
2022-09-17T08:42:09.433Z,76.93
2022-09-17T08:44:41.586Z,77.91
2022-09-17T08:47:16.415Z,77.47
2022-09-17T08:49:49.837Z,79.18
2022-09-17T08:52:43.088Z,80.76
2022-09-17T08:55:26.377Z,80.39
2022-09-17T08:58:02.228Z,80.26
2022-09-17T09:00:37.990Z,79.71
2022-09-17T09:03:20.733Z,79.88
2022-09-17T09:05:50.086Z,79.21
2022-09-17T09:08:20.564Z,80.24
2022-09-17T09:10:51.990Z,76.98
2022-09-17T09:13:23.288Z,79.86
2022-09-17T09:15:56.147Z,79.68
2022-09-17T09:18:27.655Z,77.83
2022-09-17T09:20:58.757Z,78.71
2022-09-17T09:23:32.334Z,77.99
2022-09-17T09:26:07.089Z,77.60
2022-09-17T09:29:04.749Z,81.75
2022-09-17T09:32:15.242Z,82.60
2022-09-17T09:34:46.350Z,83.70
2022-09-17T09:37:18.836Z,84.57
2022-09-17T09:39:47.531Z,86.45
2022-09-17T09:42:20.760Z,84.66
2022-09-17T09:44:48.754Z,84.52
2022-09-17T09:47:26.640Z,85.59
2022-09-17T09:50:09.433Z,84.60
2022-09-17T09:52:47.048Z,84.96
2022-09-17T09:55:30.355Z,84.27
2022-09-17T09:58:05.009Z,84.54
2022-09-17T10:00:36.597Z,84.78
2022-09-17T10:03:08.051Z,84.63
2022-09-17T10:05:37.475Z,84.12
2022-09-17T10:08:12.746Z,85.27
2022-09-17T10:10:55.508Z,84.24
2022-09-17T10:13:24.163Z,84.47
2022-09-17T10:15:52.385Z,84.71
2022-09-17T10:18:21.744Z,86.83
2022-09-17T10:20:59.463Z,86.51
2022-09-17T10:23:29.415Z,85.62
2022-09-17T10:25:57.686Z,86.71
2022-09-17T10:28:40.546Z,86.11
2022-09-17T10:31:10.747Z,84.67
2022-09-17T10:33:52.828Z,85.95
2022-09-17T10:36:41.234Z,86.59
2022-09-17T10:39:32.111Z,86.06
2022-09-17T10:42:01.315Z,86.13
2022-09-17T10:44:30.607Z,85.12
2022-09-17T10:47:04.607Z,85.11
2022-09-17T10:49:37.979Z,85.77
2022-09-17T10:52:11.986Z,85.56
2022-09-17T10:55:00.833Z,86.67
2022-09-17T10:57:46.455Z,85.32
2022-09-17T11:00:17.091Z,86.79
2022-09-17T11:03:23.141Z,87.38
2022-09-17T11:06:15.634Z,88.47
2022-09-17T11:08:51.410Z,88.92
2022-09-17T11:11:29.849Z,89.44
2022-09-17T11:14:04.067Z,90.58
2022-09-17T11:16:38.060Z,89.82
2022-09-17T11:19:14.309Z,89.03
2022-09-17T11:21:45.798Z,88.32
2022-09-17T11:24:54.668Z,88.51
2022-09-17T11:27:39.478Z,87.41
2022-09-17T11:30:16.869Z,87.96
2022-09-17T11:33:20.348Z,85.98
2022-09-17T11:35:49.952Z,84.04
2022-09-17T11:38:22.012Z,82.74
2022-09-17T11:40:54.517Z,85.83
2022-09-17T11:43:27.173Z,85.40
2022-09-17T11:46:01.387Z,85.67
2022-09-17T11:48:35.126Z,85.57
2022-09-17T11:51:08.923Z,86.09
2022-09-17T11:53:40.873Z,84.74
2022-09-17T11:56:16.870Z,83.57
2022-09-17T11:58:45.819Z,83.91
2022-09-17T12:01:18.253Z,83.74
2022-09-17T12:03:52.456Z,82.97
2022-09-17T12:06:24.349Z,82.41
2022-09-17T12:08:56.818Z,79.77
2022-09-17T12:11:33.135Z,81.22
2022-09-17T12:14:05.802Z,81.42
2022-09-17T12:16:37.508Z,81.75
2022-09-17T12:19:12.060Z,78.59
2022-09-17T12:21:44.640Z,80.51
2022-09-17T12:24:16.255Z,77.39
2022-09-17T12:27:01.064Z,78.95
2022-09-17T12:30:00.228Z,79.54
2022-09-17T12:32:39.125Z,78.05
2022-09-17T12:35:17.647Z,77.02
2022-09-17T12:37:55.112Z,74.76
2022-09-17T12:40:28.485Z,73.77
2022-09-17T12:43:06.472Z,74.82
2022-09-17T12:45:42.190Z,73.13
2022-09-17T12:48:24.756Z,74.98
2022-09-17T12:51:03.390Z,71.19
2022-09-17T12:53:37.098Z,70.48
2022-09-17T12:56:15.974Z,74.07
2022-09-17T12:59:04.419Z,70.75
2022-09-17T13:01:39.894Z,74.21
2022-09-17T13:04:17.120Z,74.47
2022-09-17T13:07:16.261Z,76.03
2022-09-17T13:09:53.263Z,71.56
2022-09-17T13:12:25.404Z,72.92
2022-09-17T13:15:05.975Z,75.63
2022-09-17T13:17:43.414Z,74.11
2022-09-17T13:20:16.377Z,77.30
2022-09-17T13:22:49.485Z,75.12
2022-09-17T13:25:19.794Z,73.31
2022-09-17T13:27:49.375Z,71.78
2022-09-17T13:30:20.720Z,71.78
2022-09-17T13:32:55.198Z,70.98
2022-09-17T13:35:50.822Z,71.28
2022-09-17T13:38:23.769Z,70.92
2022-09-17T13:40:53.038Z,69.01
2022-09-17T13:43:26.384Z,71.69
2022-09-17T13:46:16.260Z,71.35
2022-09-17T13:48:54.476Z,71.10
2022-09-17T13:51:59.143Z,68.01
2022-09-17T13:54:39.046Z,66.45
2022-09-17T13:57:10.262Z,65.50
2022-09-17T13:59:38.753Z,68.62
2022-09-17T14:02:37.990Z,65.06
2022-09-17T14:05:34.427Z,66.39
2022-09-17T14:08:14.493Z,64.81
2022-09-17T14:10:44.228Z,69.63
2022-09-17T14:13:44.387Z,68.12
2022-09-17T14:16:35.882Z,68.62
2022-09-17T14:19:23.004Z,68.51
2022-09-17T14:22:00.732Z,66.91
2022-09-17T14:24:35.586Z,68.71
2022-09-17T14:27:11.824Z,67.80
2022-09-17T14:29:52.700Z,65.25
2022-09-17T14:32:32.334Z,65.13
2022-09-17T14:35:02.816Z,65.43
2022-09-17T14:37:31.128Z,64.94
2022-09-17T14:40:00.287Z,63.90
2022-09-17T14:42:33.479Z,66.69
2022-09-17T14:45:03.182Z,66.14
2022-09-17T14:47:31.476Z,64.53
2022-09-17T14:50:21.020Z,68.17
2022-09-17T14:52:50.144Z,69.35
2022-09-17T14:55:20.584Z,71.12
2022-09-17T14:57:52.180Z,70.97
2022-09-17T15:00:23.194Z,69.81
2022-09-17T15:02:54.194Z,70.46
2022-09-17T15:05:30.388Z,70.00
2022-09-17T15:08:22.795Z,71.09
2022-09-17T15:10:55.127Z,71.05
2022-09-17T15:13:27.150Z,69.21
2022-09-17T15:16:01.907Z,67.80
2022-09-17T15:18:37.628Z,66.81
2022-09-17T15:21:12.330Z,68.66
2022-09-17T15:23:40.813Z,68.07
2022-09-17T15:26:08.844Z,66.51
2022-09-17T15:28:40.098Z,69.01
2022-09-17T15:31:15.716Z,68.72
2022-09-17T15:33:44.216Z,68.99
2022-09-17T15:36:21.144Z,68.50
2022-09-17T15:38:49.674Z,68.44
2022-09-17T15:41:28.522Z,69.04
2022-09-17T15:44:28.580Z,69.59
2022-09-17T15:46:56.806Z,69.95
2022-09-17T15:49:29.966Z,71.75
2022-09-17T15:52:36.637Z,72.12
2022-09-17T15:55:06.993Z,73.01
2022-09-17T15:57:34.985Z,73.06
2022-09-17T16:00:14.054Z,73.57
2022-09-17T16:02:42.365Z,73.83
2022-09-17T16:05:55.602Z,74.42
2022-09-17T16:08:24.907Z,75.03
2022-09-17T16:10:54.323Z,73.82
2022-09-17T16:13:25.291Z,74.38
2022-09-17T16:15:56.734Z,74.14
2022-09-17T16:18:24.727Z,74.34
2022-09-17T16:20:52.718Z,74.94
2022-09-17T16:23:20.688Z,74.99
2022-09-17T16:25:48.822Z,74.91
2022-09-17T16:28:20.549Z,76.42
2022-09-17T16:30:49.639Z,75.04
2022-09-17T16:33:19.094Z,75.96
2022-09-17T16:35:47.072Z,75.46
2022-09-17T16:38:15.500Z,75.44
2022-09-17T16:40:45.334Z,75.05
2022-09-17T16:43:13.468Z,74.68
2022-09-17T16:45:42.910Z,75.74
2022-09-17T16:48:11.422Z,75.39
2022-09-17T16:50:41.237Z,74.92
2022-09-17T16:53:09.198Z,73.48
2022-09-17T16:55:37.669Z,72.41
2022-09-17T16:58:05.732Z,72.95
2022-09-17T17:00:33.792Z,72.58
2022-09-17T17:03:03.239Z,72.01
2022-09-17T17:05:32.438Z,71.20
2022-09-17T17:08:05.876Z,71.96
2022-09-17T17:10:34.939Z,71.75
2022-09-17T17:13:03.028Z,72.28
2022-09-17T17:15:31.215Z,72.02
2022-09-17T17:17:59.383Z,71.93
2022-09-17T17:20:29.465Z,71.95
2022-09-17T17:22:57.428Z,72.07
2022-09-17T17:25:27.139Z,73.30
2022-09-17T17:27:55.426Z,72.64
2022-09-17T17:30:23.409Z,72.51
2022-09-17T17:32:52.323Z,72.72
2022-09-17T17:35:22.078Z,72.74
2022-09-17T17:37:51.417Z,73.03
2022-09-17T17:40:20.949Z,72.71
2022-09-17T17:42:52.709Z,72.47
2022-09-17T17:45:20.681Z,72.40
2022-09-17T17:47:48.904Z,72.60
2022-09-17T17:50:17.089Z,74.25
2022-09-17T17:52:48.087Z,73.59
2022-09-17T17:55:17.943Z,73.68
2022-09-17T17:57:46.065Z,73.62
2022-09-17T18:00:16.699Z,73.58
2022-09-17T18:02:44.856Z,74.22
2022-09-17T18:05:13.167Z,74.54
2022-09-17T18:07:41.300Z,74.61
2022-09-17T18:10:10.446Z,74.13
2022-09-17T18:12:40.049Z,74.17
2022-09-17T18:15:08.853Z,73.93
2022-09-17T18:17:36.887Z,74.77
2022-09-17T18:20:05.684Z,73.76
2022-09-17T18:22:33.658Z,75.14
2022-09-17T18:25:01.661Z,75.49
2022-09-17T18:27:29.676Z,75.20
2022-09-17T18:29:59.093Z,75.98
2022-09-17T18:32:27.059Z,76.44
2022-09-17T18:34:54.994Z,76.94
2022-09-17T18:37:22.991Z,76.87
2022-09-17T18:39:58.389Z,76.74
2022-09-17T18:42:27.308Z,77.11
2022-09-17T18:44:55.413Z,77.76
2022-09-17T18:47:24.843Z,77.10
2022-09-17T18:49:53.153Z,77.95
2022-09-17T18:52:21.266Z,78.11
2022-09-17T18:54:49.219Z,77.17
2022-09-17T18:57:17.263Z,77.72
2022-09-17T18:59:47.097Z,77.25
2022-09-17T19:02:15.136Z,78.40
2022-09-17T19:04:44.499Z,78.75
2022-09-17T19:07:12.434Z,78.49
2022-09-17T19:09:40.326Z,79.72
2022-09-17T19:12:08.306Z,80.00
2022-09-17T19:14:36.232Z,78.74
2022-09-17T19:17:04.229Z,79.43
2022-09-17T19:19:32.211Z,79.69
2022-09-17T19:22:01.464Z,79.37
2022-09-17T19:24:29.418Z,79.79
2022-09-17T19:26:58.813Z,78.71
2022-09-17T19:29:27.358Z,78.55
2022-09-17T19:31:55.367Z,79.65
2022-09-17T19:34:23.296Z,79.85
2022-09-17T19:36:51.272Z,80.58
2022-09-17T19:39:20.593Z,80.81
2022-09-17T19:41:48.555Z,80.73
2022-09-17T19:44:16.519Z,81.77
2022-09-17T19:46:45.119Z,82.36
2022-09-17T19:49:13.864Z,82.98
2022-09-17T19:51:41.839Z,83.05
2022-09-17T19:54:10.316Z,83.62
2022-09-17T19:56:39.873Z,83.76
2022-09-17T19:59:07.924Z,84.58
2022-09-17T20:01:35.911Z,84.82
2022-09-17T20:04:04.253Z,85.19
2022-09-17T20:06:34.534Z,85.95
2022-09-17T20:09:02.651Z,85.54
2022-09-17T20:11:30.643Z,85.50
2022-09-17T20:14:03.050Z,86.03
2022-09-17T20:16:31.550Z,86.20
2022-09-17T20:18:59.663Z,85.67
2022-09-17T20:21:29.475Z,85.87
2022-09-17T20:23:58.380Z,86.87
2022-09-17T20:26:26.628Z,87.13
2022-09-17T20:28:54.862Z,87.21
2022-09-17T20:31:25.370Z,87.28
2022-09-17T20:33:54.252Z,87.15
2022-09-17T20:36:23.810Z,87.22
2022-09-17T20:39:14.324Z,86.65
2022-09-17T20:41:40.592Z,86.93
2022-09-17T20:44:08.874Z,87.12
2022-09-17T20:46:38.222Z,87.40
2022-09-17T20:49:06.206Z,88.30
2022-09-17T20:51:34.301Z,89.59
2022-09-17T20:54:02.884Z,90.20
2022-09-17T20:56:33.248Z,91.04
2022-09-17T20:59:08.720Z,90.42
2022-09-17T21:01:38.436Z,90.14
2022-09-17T21:04:08.214Z,90.68
2022-09-17T21:06:37.962Z,89.75
2022-09-17T21:09:06.924Z,91.28
2022-09-17T21:11:35.609Z,91.38
2022-09-17T21:14:03.894Z,92.13
2022-09-17T21:16:32.178Z,91.37
2022-09-17T21:19:02.881Z,92.15
2022-09-17T21:21:34.295Z,90.73
2022-09-17T21:24:02.615Z,90.27
2022-09-17T21:26:31.214Z,90.58
2022-09-17T21:28:59.189Z,90.34
2022-09-17T21:31:32.330Z,90.09
2022-09-17T21:34:03.732Z,90.41
2022-09-17T21:36:33.955Z,89.88
2022-09-17T21:39:02.995Z,89.08
2022-09-17T21:41:31.207Z,89.20
2022-09-17T21:43:59.249Z,88.99
2022-09-17T21:46:28.534Z,88.61
2022-09-17T21:48:57.927Z,88.58
2022-09-17T21:51:30.416Z,88.70
2022-09-17T21:54:00.455Z,88.15
2022-09-17T21:56:29.788Z,88.72
2022-09-17T21:58:58.743Z,86.53
2022-09-17T22:01:28.053Z,87.49
2022-09-17T22:03:57.097Z,87.04
2022-09-17T22:06:50.908Z,87.60
2022-09-17T22:09:20.502Z,86.36
2022-09-17T22:11:48.465Z,86.34
2022-09-17T22:14:19.448Z,86.11
2022-09-17T22:16:48.865Z,85.79
2022-09-17T22:19:18.577Z,86.02
2022-09-17T22:21:48.329Z,86.15
2022-09-17T22:24:18.194Z,86.31
2022-09-17T22:26:47.570Z,86.49
2022-09-17T22:29:17.304Z,85.56
2022-09-17T22:31:46.222Z,86.64
2022-09-17T22:34:15.597Z,87.20
2022-09-17T22:36:43.914Z,85.78
2022-09-17T22:39:12.219Z,86.70
2022-09-17T22:41:45.634Z,85.93
2022-09-17T22:44:15.710Z,87.27
2022-09-17T22:46:46.215Z,87.55
2022-09-17T22:49:14.770Z,87.13
2022-09-17T22:51:43.377Z,87.21
2022-09-17T22:54:12.597Z,86.11
2022-09-17T22:56:42.255Z,86.25
2022-09-17T22:59:10.329Z,87.76
2022-09-17T23:01:40.079Z,87.58
2022-09-17T23:04:08.209Z,87.09
2022-09-17T23:06:38.501Z,88.20
2022-09-17T23:09:07.344Z,87.32
2022-09-17T23:11:36.451Z,87.55
2022-09-17T23:14:08.714Z,88.09
2022-09-17T23:16:38.636Z,87.69
2022-09-17T23:19:07.295Z,87.52
2022-09-17T23:21:35.707Z,87.78
2022-09-17T23:24:28.964Z,87.40
2022-09-17T23:26:57.527Z,87.14
2022-09-17T23:29:26.999Z,87.16
2022-09-17T23:31:54.950Z,87.40
2022-09-17T23:34:23.066Z,87.06
2022-09-17T23:36:51.074Z,86.57
2022-09-17T23:39:19.325Z,86.98
2022-09-17T23:41:48.061Z,86.59
2022-09-17T23:44:16.541Z,87.55
2022-09-17T23:46:46.926Z,86.93
2022-09-17T23:49:15.719Z,86.79
2022-09-17T23:51:44.009Z,86.82
2022-09-17T23:54:12.164Z,86.27
2022-09-17T23:56:40.373Z,86.60
2022-09-17T23:59:08.540Z,87.74
